createdAt,value
2023-03-31T00:00:18.709Z,6.87
2023-03-31T00:02:46.200Z,6.50
2023-03-31T00:05:17.870Z,7.43
2023-03-31T00:07:45.958Z,6.20
2023-03-31T00:10:18.279Z,6.40
2023-03-31T00:12:45.964Z,6.03
2023-03-31T00:15:13.126Z,6.77
2023-03-31T00:17:40.040Z,7.30
2023-03-31T00:20:12.590Z,6.77
2023-03-31T00:22:42.415Z,6.50
2023-03-31T00:25:18.290Z,7.07
2023-03-31T00:27:45.912Z,7.07
2023-03-31T00:30:14.394Z,7.10
2023-03-31T00:32:41.104Z,7.63
2023-03-31T00:35:08.976Z,7.03
2023-03-31T00:37:35.768Z,7.07
2023-03-31T00:40:06.268Z,7.77
2023-03-31T00:42:32.928Z,7.00
2023-03-31T00:45:14.936Z,7.20
2023-03-31T00:47:44.461Z,6.80
2023-03-31T00:50:18.828Z,7.17
2023-03-31T00:52:46.933Z,8.03
2023-03-31T00:55:21.194Z,6.93
2023-03-31T00:57:48.564Z,6.97
2023-03-31T01:00:16.365Z,6.60
2023-03-31T01:02:52.429Z,6.73
2023-03-31T01:05:23.100Z,8.10
2023-03-31T01:07:51.879Z,6.33
2023-03-31T01:10:20.178Z,7.97
2023-03-31T01:12:51.737Z,6.00
2023-03-31T01:15:18.670Z,6.43
2023-03-31T01:17:45.870Z,6.00
2023-03-31T01:20:47.357Z,5.50
2023-03-31T01:24:02.063Z,7.10
2023-03-31T01:26:50.580Z,5.50
2023-03-31T01:29:45.237Z,5.47
2023-03-31T01:32:53.278Z,5.93
2023-03-31T01:35:35.092Z,6.07
2023-03-31T01:38:10.710Z,5.60
2023-03-31T01:40:52.338Z,5.20
2023-03-31T01:43:40.703Z,5.17
2023-03-31T01:46:32.630Z,4.63
2023-03-31T01:49:22.498Z,4.60
2023-03-31T01:52:00.479Z,4.30
2023-03-31T01:54:58.822Z,4.43
2023-03-31T01:57:40.868Z,5.23
2023-03-31T02:00:29.982Z,5.50
2023-03-31T02:03:14.723Z,4.97
2023-03-31T02:05:57.972Z,4.60
2023-03-31T02:08:39.708Z,4.30
2023-03-31T02:11:06.520Z,3.87
2023-03-31T02:13:34.987Z,3.80
2023-03-31T02:16:08.189Z,4.80
2023-03-31T02:18:38.323Z,4.00
2023-03-31T02:21:07.832Z,4.47
2023-03-31T02:23:38.252Z,4.00
2023-03-31T02:26:07.825Z,4.70
2023-03-31T02:28:35.480Z,4.97
2023-03-31T02:31:12.897Z,4.13
2023-03-31T02:33:39.579Z,3.90
2023-03-31T02:36:07.574Z,4.30
2023-03-31T02:38:42.930Z,4.10
2023-03-31T02:41:10.714Z,4.83
2023-03-31T02:43:37.628Z,5.30
2023-03-31T02:46:04.519Z,4.80
2023-03-31T02:48:39.237Z,4.70
2023-03-31T02:51:09.087Z,4.40
2023-03-31T02:54:06.338Z,5.37
2023-03-31T02:56:51.463Z,4.13
2023-03-31T02:59:55.348Z,5.27
2023-03-31T03:02:35.332Z,4.80
2023-03-31T03:05:12.607Z,4.40
2023-03-31T03:08:19.314Z,4.73
2023-03-31T03:11:00.651Z,4.70
2023-03-31T03:13:36.540Z,5.50
2023-03-31T03:16:19.413Z,4.80
2023-03-31T03:18:57.323Z,5.17
2023-03-31T03:21:24.063Z,5.40
2023-03-31T03:23:51.704Z,5.07
2023-03-31T03:26:21.428Z,4.40
2023-03-31T03:28:49.030Z,4.63
2023-03-31T03:31:15.943Z,4.00
2023-03-31T03:33:43.272Z,5.03
2023-03-31T03:36:10.364Z,4.87
2023-03-31T03:38:37.031Z,4.70
2023-03-31T03:41:04.263Z,3.90
2023-03-31T03:43:31.046Z,4.50
2023-03-31T03:45:57.799Z,4.23
2023-03-31T03:48:24.662Z,4.63
2023-03-31T03:50:52.687Z,4.57
2023-03-31T03:53:20.172Z,3.50
2023-03-31T03:55:49.669Z,3.47
2023-03-31T03:58:17.381Z,3.43
2023-03-31T04:00:45.322Z,3.70
2023-03-31T04:03:13.028Z,2.40
2023-03-31T04:05:39.912Z,2.67
2023-03-31T04:08:08.392Z,2.30
2023-03-31T04:10:36.005Z,3.00
2023-03-31T04:13:02.961Z,1.90
2023-03-31T04:15:29.696Z,2.30
2023-03-31T04:17:58.130Z,2.20
2023-03-31T04:20:27.737Z,2.10
2023-03-31T04:22:54.787Z,3.20
2023-03-31T04:25:22.657Z,3.63
2023-03-31T04:27:54.745Z,2.50
2023-03-31T04:30:23.244Z,1.90
2023-03-31T04:32:53.094Z,1.83
2023-03-31T04:35:20.984Z,3.40
2023-03-31T04:37:52.431Z,2.60
2023-03-31T04:40:19.096Z,1.80
2023-03-31T04:42:45.758Z,1.40
2023-03-31T04:45:13.139Z,1.50
2023-03-31T04:47:39.851Z,1.53
2023-03-31T04:50:07.418Z,2.57
2023-03-31T04:52:34.163Z,2.43
2023-03-31T04:55:00.777Z,1.67
2023-03-31T04:57:27.427Z,2.97
2023-03-31T04:59:54.149Z,3.53
2023-03-31T05:02:25.072Z,3.30
2023-03-31T05:04:52.358Z,3.57
2023-03-31T05:07:19.417Z,1.20
2023-03-31T05:09:46.943Z,4.27
2023-03-31T05:12:13.617Z,3.30
2023-03-31T05:14:40.334Z,1.30
2023-03-31T05:17:06.970Z,3.00
2023-03-31T05:19:33.627Z,2.27
2023-03-31T05:22:00.457Z,1.90
2023-03-31T05:24:29.840Z,4.40
2023-03-31T05:26:57.400Z,3.57
2023-03-31T05:29:24.796Z,1.53
2023-03-31T05:31:53.323Z,1.47
2023-03-31T05:34:20.173Z,3.53
2023-03-31T05:36:48.157Z,1.83
2023-03-31T05:39:14.835Z,3.70
2023-03-31T05:41:41.568Z,1.53
2023-03-31T05:44:08.480Z,2.07
2023-03-31T05:46:35.237Z,3.90
2023-03-31T05:49:02.660Z,2.20
2023-03-31T05:51:29.330Z,3.57
2023-03-31T05:53:56.114Z,4.33
2023-03-31T05:56:22.980Z,3.13
2023-03-31T05:58:49.814Z,2.20
2023-03-31T06:01:22.953Z,2.93
2023-03-31T06:03:50.307Z,4.13
2023-03-31T06:06:17.077Z,3.70
2023-03-31T06:08:45.851Z,4.47
2023-03-31T06:11:19.327Z,3.30
2023-03-31T06:13:46.371Z,4.40
2023-03-31T06:16:14.498Z,3.80
2023-03-31T06:18:41.588Z,3.13
2023-03-31T06:21:12.228Z,3.47
2023-03-31T06:23:38.961Z,4.73
2023-03-31T06:26:08.403Z,4.17
2023-03-31T06:28:36.028Z,3.83
2023-03-31T06:31:08.291Z,5.13
2023-03-31T06:33:35.674Z,5.50
2023-03-31T06:36:04.235Z,4.27
2023-03-31T06:38:31.599Z,4.93
2023-03-31T06:40:58.229Z,3.70
2023-03-31T06:43:25.025Z,3.70
2023-03-31T06:45:54.064Z,4.67
2023-03-31T06:48:22.299Z,4.30
2023-03-31T06:50:48.985Z,5.27
2023-03-31T06:53:15.958Z,4.57
2023-03-31T06:55:42.629Z,5.03
2023-03-31T06:58:09.385Z,4.27
2023-03-31T07:00:36.159Z,4.33
2023-03-31T07:03:04.418Z,4.57
2023-03-31T07:05:31.720Z,5.80
2023-03-31T07:07:59.967Z,4.57
2023-03-31T07:10:28.655Z,3.23
2023-03-31T07:12:55.314Z,2.57
2023-03-31T07:15:22.079Z,3.17
2023-03-31T07:17:51.140Z,3.33
2023-03-31T07:20:19.006Z,4.63
2023-03-31T07:22:47.242Z,4.13
2023-03-31T07:25:16.375Z,3.97
2023-03-31T07:27:43.684Z,2.73
2023-03-31T07:30:20.080Z,4.70
2023-03-31T07:32:48.698Z,3.87
2023-03-31T07:35:15.988Z,4.87
2023-03-31T07:37:45.183Z,5.30
2023-03-31T07:40:20.746Z,5.63
2023-03-31T07:42:49.364Z,3.70
2023-03-31T07:45:16.816Z,2.40
2023-03-31T07:47:44.798Z,2.33
2023-03-31T07:50:11.958Z,1.63
2023-03-31T07:52:39.327Z,1.43
2023-03-31T07:55:07.611Z,1.67
2023-03-31T07:57:35.292Z,2.87
2023-03-31T08:00:07.066Z,3.87
2023-03-31T08:02:34.264Z,3.57
2023-03-31T08:05:01.011Z,3.50
2023-03-31T08:07:30.919Z,5.53
2023-03-31T08:09:58.544Z,4.57
2023-03-31T08:12:25.448Z,2.67
2023-03-31T08:14:52.304Z,4.20
2023-03-31T08:17:18.946Z,2.00
2023-03-31T08:19:45.626Z,2.40
2023-03-31T08:22:12.438Z,3.33
2023-03-31T08:24:39.075Z,7.07
2023-03-31T08:29:38.198Z,4.93
2023-03-31T08:32:05.152Z,2.43
2023-03-31T08:34:31.989Z,2.73
2023-03-31T08:36:58.764Z,4.37
2023-03-31T08:39:25.456Z,4.63
2023-03-31T08:42:00.051Z,3.90
2023-03-31T08:44:32.415Z,3.63
2023-03-31T08:47:01.102Z,4.30
2023-03-31T08:49:41.351Z,4.37
2023-03-31T08:52:13.996Z,2.43
2023-03-31T08:54:43.706Z,3.67
2023-03-31T08:57:20.733Z,4.33
2023-03-31T08:59:47.707Z,5.20
2023-03-31T09:02:29.780Z,3.40
2023-03-31T09:05:23.185Z,3.77
2023-03-31T09:07:49.823Z,3.00
2023-03-31T09:10:51.381Z,2.87
2023-03-31T09:13:42.279Z,4.57
2023-03-31T09:16:22.726Z,3.72
2023-03-31T09:18:52.847Z,4.37
2023-03-31T09:21:32.556Z,4.20
2023-03-31T09:24:13.844Z,4.97
2023-03-31T09:26:49.109Z,4.17
2023-03-31T09:29:20.774Z,5.80
2023-03-31T09:31:47.754Z,6.07
2023-03-31T09:34:17.613Z,8.73
2023-03-31T09:36:44.388Z,9.60
2023-03-31T09:39:14.053Z,10.03
2023-03-31T09:41:45.565Z,11.27
2023-03-31T09:44:26.437Z,11.20
2023-03-31T09:46:54.711Z,11.30
2023-03-31T09:49:24.958Z,12.10
2023-03-31T09:52:07.151Z,11.20
2023-03-31T09:54:46.607Z,12.40
2023-03-31T09:57:29.929Z,12.03
2023-03-31T10:00:20.620Z,11.30
2023-03-31T10:02:55.671Z,11.60
2023-03-31T10:05:36.291Z,11.17
2023-03-31T10:08:18.029Z,11.50
2023-03-31T10:10:50.380Z,11.30
2023-03-31T10:13:26.610Z,10.30
2023-03-31T10:15:55.386Z,10.30
2023-03-31T10:18:33.206Z,10.20
2023-03-31T10:21:02.232Z,10.80
2023-03-31T10:23:32.322Z,11.07
2023-03-31T10:26:00.708Z,11.87
2023-03-31T10:28:31.208Z,10.43
2023-03-31T10:31:03.598Z,10.67
2023-03-31T10:33:34.728Z,11.70
2023-03-31T10:36:08.657Z,11.13
2023-03-31T10:38:42.709Z,11.18
2023-03-31T10:41:10.316Z,10.47
2023-03-31T10:43:48.540Z,10.87
2023-03-31T10:46:15.241Z,10.60
2023-03-31T10:48:44.361Z,10.77
2023-03-31T10:51:21.955Z,10.80
2023-03-31T10:54:00.526Z,11.23
2023-03-31T10:56:39.186Z,9.80
2023-03-31T10:59:24.931Z,10.40
2023-03-31T11:02:29.413Z,10.23
2023-03-31T11:05:26.702Z,10.37
2023-03-31T11:08:12.327Z,9.60
2023-03-31T11:11:18.861Z,9.27
2023-03-31T11:13:51.463Z,3.33
2023-03-31T11:16:42.101Z,3.10
2023-03-31T11:19:44.312Z,5.13
2023-03-31T11:22:31.510Z,4.97
2023-03-31T11:25:28.995Z,5.10
2023-03-31T11:28:27.234Z,10.33
2023-03-31T11:31:11.985Z,10.67
2023-03-31T11:34:26.612Z,11.07
2023-03-31T11:37:21.288Z,12.57
2023-03-31T11:40:07.659Z,11.13
2023-03-31T11:42:41.578Z,11.50
2023-03-31T11:45:23.137Z,12.07
2023-03-31T11:47:55.424Z,11.67
2023-03-31T11:50:27.574Z,11.90
2023-03-31T11:53:07.849Z,11.98
2023-03-31T11:55:35.754Z,11.98
2023-03-31T11:58:06.075Z,11.95
2023-03-31T12:00:42.282Z,12.30
2023-03-31T12:03:12.155Z,12.30
2023-03-31T12:05:46.227Z,12.43
2023-03-31T12:08:45.524Z,12.40
2023-03-31T12:11:35.900Z,12.50
2023-03-31T12:14:21.479Z,12.05
2023-03-31T12:16:52.672Z,12.70
2023-03-31T12:19:27.916Z,12.55
2023-03-31T12:22:27.268Z,12.20
2023-03-31T12:24:54.450Z,12.77
2023-03-31T12:27:24.098Z,12.93
2023-03-31T12:30:07.620Z,12.77
2023-03-31T12:32:38.390Z,12.90
2023-03-31T12:35:18.437Z,13.25
2023-03-31T12:38:24.239Z,12.88
2023-03-31T12:41:02.813Z,12.20
2023-03-31T12:44:07.577Z,12.80
2023-03-31T12:47:08.830Z,12.57
2023-03-31T12:50:06.003Z,12.00
2023-03-31T12:52:51.437Z,11.20
2023-03-31T12:55:28.849Z,10.43
2023-03-31T12:58:27.268Z,7.70
2023-03-31T13:01:11.794Z,7.90
2023-03-31T13:04:05.445Z,7.20
2023-03-31T13:06:32.199Z,7.63
2023-03-31T13:09:11.328Z,7.80
2023-03-31T13:11:39.821Z,2.70
2023-03-31T13:14:24.035Z,2.70
2023-03-31T13:16:56.152Z,4.20
2023-03-31T13:19:36.502Z,7.13
2023-03-31T13:22:05.545Z,9.00
2023-03-31T13:24:33.170Z,9.93
2023-03-31T13:27:34.907Z,9.80
2023-03-31T13:30:01.639Z,10.57
2023-03-31T13:32:28.772Z,11.60
2023-03-31T13:35:03.337Z,11.47
2023-03-31T13:37:58.154Z,11.60
2023-03-31T13:40:46.962Z,11.10
2023-03-31T13:43:32.360Z,11.70
2023-03-31T13:46:16.692Z,11.30
2023-03-31T13:48:55.100Z,11.20
2023-03-31T13:51:30.853Z,11.90
2023-03-31T13:54:12.495Z,12.40
2023-03-31T13:57:07.199Z,12.57
2023-03-31T13:59:58.618Z,12.90
2023-03-31T14:02:47.263Z,12.30
2023-03-31T14:05:35.723Z,11.43
2023-03-31T14:08:07.837Z,11.63
2023-03-31T14:10:38.063Z,11.70
2023-03-31T14:13:19.529Z,11.20
2023-03-31T14:15:54.575Z,10.97
2023-03-31T14:18:33.530Z,7.40
2023-03-31T14:21:09.401Z,8.63
2023-03-31T14:24:01.283Z,10.50
2023-03-31T14:26:51.625Z,10.70
2023-03-31T14:29:34.548Z,10.70
2023-03-31T14:32:20.004Z,10.27
2023-03-31T14:35:04.823Z,10.40
2023-03-31T14:37:31.950Z,10.30
2023-03-31T14:40:00.979Z,10.13
2023-03-31T14:42:38.065Z,10.50
2023-03-31T14:45:09.878Z,10.93
2023-03-31T14:47:36.553Z,10.83
2023-03-31T14:50:15.299Z,10.43
2023-03-31T14:52:47.840Z,10.03
2023-03-31T14:55:16.506Z,9.63
2023-03-31T14:57:46.181Z,9.60
2023-03-31T15:00:26.406Z,9.77
2023-03-31T15:02:54.802Z,10.43
2023-03-31T15:05:35.052Z,9.70
2023-03-31T15:08:22.189Z,9.30
2023-03-31T15:10:58.839Z,9.93
2023-03-31T15:13:40.934Z,9.57
2023-03-31T15:16:42.105Z,9.23
2023-03-31T15:19:16.942Z,9.10
2023-03-31T15:21:44.738Z,9.37
2023-03-31T15:24:15.423Z,9.50
2023-03-31T15:26:50.014Z,9.00
2023-03-31T15:29:36.715Z,9.77
2023-03-31T15:32:07.272Z,9.90
2023-03-31T15:34:36.787Z,9.33
2023-03-31T15:37:07.313Z,9.47
2023-03-31T15:39:36.613Z,9.73
2023-03-31T15:42:05.869Z,9.87
2023-03-31T15:44:45.109Z,10.00
2023-03-31T15:47:31.843Z,10.57
2023-03-31T15:50:12.939Z,10.33
2023-03-31T15:52:47.324Z,10.00
2023-03-31T15:55:40.786Z,10.70
2023-03-31T15:58:15.602Z,10.87
2023-03-31T16:00:48.046Z,10.80
2023-03-31T16:03:17.107Z,11.07
2023-03-31T16:05:56.417Z,10.93
2023-03-31T16:08:38.068Z,11.00
2023-03-31T16:11:13.633Z,10.90
2023-03-31T16:13:44.502Z,10.63
2023-03-31T16:16:18.687Z,11.30
2023-03-31T16:19:10.194Z,11.00
2023-03-31T16:21:47.522Z,11.70
2023-03-31T16:24:15.601Z,11.00
2023-03-31T16:26:42.634Z,11.13
2023-03-31T16:29:09.348Z,10.70
2023-03-31T16:31:39.474Z,10.57
2023-03-31T16:34:09.232Z,10.47
2023-03-31T16:36:36.262Z,10.63
2023-03-31T16:39:05.184Z,10.47
2023-03-31T16:41:33.251Z,10.60
2023-03-31T16:44:00.117Z,10.27
2023-03-31T16:46:26.824Z,9.97
2023-03-31T16:48:53.858Z,10.27
2023-03-31T16:51:20.487Z,9.60
2023-03-31T16:53:47.819Z,9.70
2023-03-31T16:56:15.157Z,9.40
2023-03-31T16:58:43.581Z,9.20
2023-03-31T17:01:10.938Z,9.10
2023-03-31T17:03:39.722Z,9.40
2023-03-31T17:06:09.843Z,9.37
2023-03-31T17:08:37.974Z,9.33
2023-03-31T17:11:11.667Z,10.13
2023-03-31T17:13:39.672Z,9.67
2023-03-31T17:16:18.566Z,9.13
2023-03-31T17:18:51.068Z,9.43
2023-03-31T17:21:20.525Z,8.80
2023-03-31T17:23:47.723Z,8.60
2023-03-31T17:26:15.419Z,8.67
2023-03-31T17:28:42.938Z,8.27
2023-03-31T17:31:14.826Z,9.83
2023-03-31T17:33:42.029Z,9.60
2023-03-31T17:36:08.752Z,9.90
2023-03-31T17:38:35.736Z,9.27
2023-03-31T17:41:03.775Z,9.40
2023-03-31T17:43:30.501Z,9.30
2023-03-31T17:46:02.663Z,9.20
2023-03-31T17:48:29.300Z,8.83
2023-03-31T17:50:55.981Z,8.07
2023-03-31T17:53:22.595Z,8.80
2023-03-31T17:55:49.242Z,7.67
2023-03-31T17:58:15.998Z,8.57
2023-03-31T18:00:42.708Z,7.70
2023-03-31T18:03:10.130Z,8.00
2023-03-31T18:05:37.379Z,7.30
2023-03-31T18:08:04.041Z,7.03
2023-03-31T18:10:31.617Z,6.53
2023-03-31T18:12:59.554Z,6.87
2023-03-31T18:15:26.319Z,6.20
2023-03-31T18:17:53.350Z,4.50
2023-03-31T18:20:20.379Z,5.60
2023-03-31T18:22:47.008Z,6.30
2023-03-31T18:25:13.757Z,5.63
2023-03-31T18:27:40.375Z,5.60
2023-03-31T18:30:08.110Z,5.50
2023-03-31T18:32:35.248Z,5.20
2023-03-31T18:35:02.441Z,5.23
2023-03-31T18:37:29.415Z,5.23
2023-03-31T18:39:56.053Z,5.80
2023-03-31T18:42:25.658Z,6.10
2023-03-31T18:44:53.124Z,6.20
2023-03-31T18:47:20.508Z,6.57
2023-03-31T18:49:48.517Z,7.30
2023-03-31T18:52:15.417Z,7.37
2023-03-31T18:54:42.062Z,7.40
2023-03-31T18:57:09.032Z,6.90
2023-03-31T18:59:35.795Z,7.30
2023-03-31T19:02:02.552Z,6.70
2023-03-31T19:04:30.141Z,7.30
2023-03-31T19:06:56.998Z,7.47
2023-03-31T19:09:26.354Z,6.80
2023-03-31T19:11:53.833Z,6.47
2023-03-31T19:14:20.829Z,6.63
2023-03-31T19:16:47.564Z,6.77
2023-03-31T19:19:14.255Z,6.40
2023-03-31T19:21:41.725Z,6.13
2023-03-31T19:24:09.567Z,5.93
2023-03-31T19:26:36.406Z,6.10
2023-03-31T19:29:05.136Z,6.30
2023-03-31T19:31:38.192Z,6.83
2023-03-31T19:34:06.144Z,6.20
2023-03-31T19:36:32.891Z,6.30
2023-03-31T19:39:01.033Z,5.60
2023-03-31T19:41:28.077Z,5.40
2023-03-31T19:43:55.354Z,5.80
2023-03-31T19:46:22.129Z,5.87
2023-03-31T19:48:48.951Z,5.80
2023-03-31T19:51:15.672Z,5.43
2023-03-31T19:53:42.528Z,6.37
2023-03-31T19:56:14.976Z,6.00
2023-03-31T19:58:42.185Z,5.60
2023-03-31T20:01:15.254Z,6.73
2023-03-31T20:03:42.074Z,5.60
2023-03-31T20:06:11.691Z,5.23
2023-03-31T20:08:41.537Z,5.07
2023-03-31T20:11:11.993Z,5.60
2023-03-31T20:13:39.825Z,5.60
2023-03-31T20:16:15.425Z,5.80
2023-03-31T20:18:47.785Z,5.77
2023-03-31T20:21:16.961Z,5.63
2023-03-31T20:23:44.656Z,5.67
2023-03-31T20:26:13.925Z,5.80
2023-03-31T20:28:41.149Z,5.70
2023-03-31T20:31:13.752Z,5.80
2023-03-31T20:33:42.059Z,5.40
2023-03-31T20:36:11.785Z,5.63
2023-03-31T20:38:40.349Z,5.30
2023-03-31T20:41:08.200Z,6.17
2023-03-31T20:43:35.898Z,5.30
2023-03-31T20:46:05.142Z,6.27
2023-03-31T20:48:37.580Z,5.37
2023-03-31T20:51:09.907Z,5.57
2023-03-31T20:53:41.894Z,5.20
2023-03-31T20:56:09.995Z,5.10
2023-03-31T20:58:36.688Z,5.30
2023-03-31T21:01:04.321Z,5.40
2023-03-31T21:03:31.067Z,5.40
2023-03-31T21:06:01.974Z,5.67
2023-03-31T21:08:28.619Z,5.90
2023-03-31T21:10:58.730Z,6.00
2023-03-31T21:13:29.111Z,5.90
2023-03-31T21:15:56.196Z,5.50
2023-03-31T21:18:23.722Z,5.50
2023-03-31T21:21:02.348Z,5.50
2023-03-31T21:23:30.311Z,6.30
2023-03-31T21:25:59.535Z,5.40
2023-03-31T21:28:28.654Z,5.40
2023-03-31T21:30:57.861Z,6.73
2023-03-31T21:33:25.753Z,5.67
2023-03-31T21:35:53.170Z,5.80
2023-03-31T21:38:20.442Z,5.90
2023-03-31T21:40:48.838Z,5.90
2023-03-31T21:43:15.879Z,5.90
2023-03-31T21:45:42.865Z,5.50
2023-03-31T21:48:10.811Z,5.57
2023-03-31T21:50:38.542Z,5.60
2023-03-31T21:53:05.700Z,5.77
2023-03-31T21:55:37.375Z,5.90
2023-03-31T21:58:05.270Z,5.63
2023-03-31T22:00:35.841Z,5.67
2023-03-31T22:03:22.383Z,6.20
2023-03-31T22:05:49.318Z,5.77
2023-03-31T22:08:16.039Z,5.40
2023-03-31T22:10:43.533Z,5.93
2023-03-31T22:13:10.302Z,6.10
2023-03-31T22:15:42.098Z,5.30
2023-03-31T22:18:08.739Z,6.40
2023-03-31T22:20:35.588Z,5.60
2023-03-31T22:23:02.216Z,5.60
2023-03-31T22:25:28.827Z,5.67
2023-03-31T22:27:55.475Z,5.87
2023-03-31T22:30:22.603Z,5.50
2023-03-31T22:32:50.064Z,6.00
2023-03-31T22:35:16.939Z,5.60
2023-03-31T22:37:43.834Z,5.70
2023-03-31T22:40:10.813Z,6.00
2023-03-31T22:42:37.434Z,5.70
2023-03-31T22:45:04.617Z,5.80
2023-03-31T22:47:31.305Z,5.87
2023-03-31T22:49:57.980Z,5.77
2023-03-31T22:52:24.618Z,6.20
2023-03-31T22:54:51.630Z,5.70
2023-03-31T22:57:18.958Z,5.50
2023-03-31T22:59:46.025Z,5.27
2023-03-31T23:02:12.657Z,5.20
2023-03-31T23:04:39.324Z,6.20
2023-03-31T23:07:06.361Z,6.20
2023-03-31T23:09:33.336Z,5.67
2023-03-31T23:12:00.033Z,5.60
2023-03-31T23:14:26.995Z,5.80
2023-03-31T23:16:54.876Z,5.60
2023-03-31T23:19:21.779Z,5.60
2023-03-31T23:21:48.556Z,6.00
2023-03-31T23:24:19.533Z,5.43
2023-03-31T23:26:46.502Z,5.57
2023-03-31T23:29:13.289Z,5.90
2023-03-31T23:31:39.973Z,6.20
2023-03-31T23:34:07.287Z,5.73
2023-03-31T23:36:33.898Z,5.50
2023-03-31T23:39:00.556Z,5.50
2023-03-31T23:41:27.311Z,5.90
2023-03-31T23:43:55.789Z,5.33
2023-03-31T23:46:24.225Z,6.00
2023-03-31T23:48:51.429Z,5.50
2023-03-31T23:51:18.734Z,5.77
2023-03-31T23:53:45.371Z,5.83
2023-03-31T23:56:13.850Z,5.37
2023-03-31T23:58:42.888Z,6.40
